Whitley City, Kentucky
Current Conditions -  °F | °C
As of 3:56 PM on Tuesday 21 Oct 2014 (Local Time) from KEKQ Reporting Station
Broken Clouds Broken Clouds  
Wind Chill: 65°   Ceiling: 4600
Heat Index: 65°   Visibility: 10mi
Dew Point: 45°   Wind: 10mph
Humidity: 48%   Direction: 330°NNW
Pressure: 30.05"   Gusts: 92mph
Location:  36.72°N, 84.47°W
Report Text: KEKQ 211956Z AUTO 33009G80KT 230V360 10SM SQ BKN046 BKN055 18/07 A3005 RMK AO2 T01830072 PK WND 27080/1950 SLP182
Loading
Personal Weather Stations






























Interactive Weather Map
Tropical Storm Tracking
New forecast layout! Learn more

10-Day Weather Forecast

Advertisements
Track Severe Weather on mobile